sensor_id;sensor_type;location;lat;lon;timestamp;temperature;humidity
15815;DHT22;8008;50.024;8.172;2022-07-29T03:02:39;19.80;99.90
15815;DHT22;8008;50.024;8.172;2022-07-29T03:05:11;19.80;99.90
15815;DHT22;8008;50.024;8.172;2022-07-29T03:07:46;19.80;99.90
15815;DHT22;8008;50.024;8.172;2022-07-29T03:10:15;19.70;99.90
15815;DHT22;8008;50.024;8.172;2022-07-29T03:12:43;19.80;99.90
15815;DHT22;8008;50.024;8.172;2022-07-29T03:15:12;19.70;99.90
15815;DHT22;8008;50.024;8.172;2022-07-29T03:17:42;19.80;99.90
15815;DHT22;8008;50.024;8.172;2022-07-29T03:20:12;19.60;99.90
15815;DHT22;8008;50.024;8.172;2022-07-29T03:22:41;19.50;99.90
15815;DHT22;8008;50.024;8.172;2022-07-29T03:25:11;19.40;99.90
15815;DHT22;8008;50.024;8.172;2022-07-29T03:27:39;19.30;99.90
15815;DHT22;8008;50.024;8.172;2022-07-29T03:30:07;19.20;99.90
15815;DHT22;8008;50.024;8.172;2022-07-29T03:32:37;19.20;99.90
15815;DHT22;8008;50.024;8.172;2022-07-29T03:35:08;19.30;99.90
15815;DHT22;8008;50.024;8.172;2022-07-29T03:37:36;19.30;99.90
15815;DHT22;8008;50.024;8.172;2022-07-29T03:40:07;19.30;99.90
15815;DHT22;8008;50.024;8.172;2022-07-29T03:42:39;19.30;99.90
15815;DHT22;8008;50.024;8.172;2022-07-29T03:45:11;19.30;99.90
15815;DHT22;8008;50.024;8.172;2022-07-29T03:47:47;19.30;99.90
15815;DHT22;8008;50.024;8.172;2022-07-29T03:50:22;19.20;99.90
15815;DHT22;8008;50.024;8.172;2022-07-29T03:52:50;19.20;99.90
15815;DHT22;8008;50.024;8.172;2022-07-29T03:55:18;19.20;99.90
15815;DHT22;8008;50.024;8.172;2022-07-29T03:57:46;19.20;99.90
15815;DHT22;8008;50.024;8.172;2022-07-29T04:00:15;19.20;99.90
15815;DHT22;8008;50.024;8.172;2022-07-29T04:02:44;19.20;99.90
15815;DHT22;8008;50.024;8.172;2022-07-29T04:05:15;19.30;99.90
15815;DHT22;8008;50.024;8.172;2022-07-29T04:07:45;19.20;99.90
15815;DHT22;8008;50.024;8.172;2022-07-29T04:10:14;19.20;99.90
15815;DHT22;8008;50.024;8.172;2022-07-29T04:12:56;19.10;99.90
15815;DHT22;8008;50.024;8.172;2022-07-29T04:15:24;18.80;99.90
15815;DHT22;8008;50.024;8.172;2022-07-29T04:17:57;18.60;99.90
15815;DHT22;8008;50.024;8.172;2022-07-29T04:20:25;18.50;99.90
15815;DHT22;8008;50.024;8.172;2022-07-29T04:22:54;18.30;99.90
15815;DHT22;8008;50.024;8.172;2022-07-29T04:25:22;18.00;99.90
15815;DHT22;8008;50.024;8.172;2022-07-29T04:27:50;18.00;99.90
15815;DHT22;8008;50.024;8.172;2022-07-29T04:30:31;17.90;99.90
15815;DHT22;8008;50.024;8.172;2022-07-29T04:32:59;17.80;99.90
15815;DHT22;8008;50.024;8.172;2022-07-29T04:35:28;17.80;99.90
15815;DHT22;8008;50.024;8.172;2022-07-29T04:38:06;17.70;99.90
15815;DHT22;8008;50.024;8.172;2022-07-29T04:40:41;17.70;99.90
15815;DHT22;8008;50.024;8.172;2022-07-29T04:43:09;17.80;99.90
15815;DHT22;8008;50.024;8.172;2022-07-29T04:45:39;17.90;99.90
15815;DHT22;8008;50.024;8.172;2022-07-29T04:48:08;17.90;99.90
15815;DHT22;8008;50.024;8.172;2022-07-29T04:50:38;17.90;99.90
15815;DHT22;8008;50.024;8.172;2022-07-29T04:53:07;17.90;99.90
15815;DHT22;8008;50.024;8.172;2022-07-29T04:55:35;17.90;99.90
15815;DHT22;8008;50.024;8.172;2022-07-29T04:58:04;18.10;99.90
15815;DHT22;8008;50.024;8.172;2022-07-29T05:00:32;18.10;99.90
15815;DHT22;8008;50.024;8.172;2022-07-29T05:03:00;18.00;99.90
15815;DHT22;8008;50.024;8.172;2022-07-29T05:05:28;18.10;99.90
15815;DHT22;8008;50.024;8.172;2022-07-29T05:07:56;18.30;99.90
15815;DHT22;8008;50.024;8.172;2022-07-29T05:10:26;18.30;99.90
15815;DHT22;8008;50.024;8.172;2022-07-29T05:12:54;18.30;99.90
15815;DHT22;8008;50.024;8.172;2022-07-29T05:15:22;18.40;99.90
15815;DHT22;8008;50.024;8.172;2022-07-29T05:17:50;18.50;99.90
15815;DHT22;8008;50.024;8.172;2022-07-29T05:20:18;18.50;99.90
15815;DHT22;8008;50.024;8.172;2022-07-29T05:22:52;18.60;99.90
15815;DHT22;8008;50.024;8.172;2022-07-29T05:25:20;18.60;99.90
15815;DHT22;8008;50.024;8.172;2022-07-29T05:27:49;18.60;99.90
15815;DHT22;8008;50.024;8.172;2022-07-29T05:30:17;18.50;99.90
15815;DHT22;8008;50.024;8.172;2022-07-29T05:32:46;18.50;99.90
15815;DHT22;8008;50.024;8.172;2022-07-29T05:35:14;18.50;99.90
15815;DHT22;8008;50.024;8.172;2022-07-29T05:37:42;18.60;99.90
15815;DHT22;8008;50.024;8.172;2022-07-29T05:40:10;18.70;99.90
15815;DHT22;8008;50.024;8.172;2022-07-29T05:42:38;18.80;99.90
15815;DHT22;8008;50.024;8.172;2022-07-29T05:45:08;18.80;99.90
15815;DHT22;8008;50.024;8.172;2022-07-29T05:47:36;18.80;99.90
15815;DHT22;8008;50.024;8.172;2022-07-29T05:50:05;18.80;99.90
15815;DHT22;8008;50.024;8.172;2022-07-29T05:52:33;18.90;99.90
15815;DHT22;8008;50.024;8.172;2022-07-29T05:55:01;18.90;99.90
15815;DHT22;8008;50.024;8.172;2022-07-29T05:57:32;18.90;99.90
15815;DHT22;8008;50.024;8.172;2022-07-29T06:00:00;19.00;99.90
15815;DHT22;8008;50.024;8.172;2022-07-29T06:02:39;19.00;99.90
15815;DHT22;8008;50.024;8.172;2022-07-29T06:05:07;19.10;99.90
15815;DHT22;8008;50.024;8.172;2022-07-29T06:07:42;19.40;99.90
15815;DHT22;8008;50.024;8.172;2022-07-29T06:10:16;19.60;99.90
15815;DHT22;8008;50.024;8.172;2022-07-29T06:12:49;19.50;99.90
15815;DHT22;8008;50.024;8.172;2022-07-29T06:15:17;19.40;99.90
15815;DHT22;8008;50.024;8.172;2022-07-29T06:17:46;19.40;99.90
15815;DHT22;8008;50.024;8.172;2022-07-29T06:20:26;19.70;99.90
15815;DHT22;8008;50.024;8.172;2022-07-29T06:22:56;19.90;99.90
15815;DHT22;8008;50.024;8.172;2022-07-29T06:25:24;20.00;99.90
15815;DHT22;8008;50.024;8.172;2022-07-29T06:27:52;20.00;99.90
15815;DHT22;8008;50.024;8.172;2022-07-29T06:30:20;20.10;99.90
15815;DHT22;8008;50.024;8.172;2022-07-29T06:32:49;20.30;99.90
15815;DHT22;8008;50.024;8.172;2022-07-29T06:35:17;20.40;99.90
15815;DHT22;8008;50.024;8.172;2022-07-29T06:38:05;20.60;99.90
15815;DHT22;8008;50.024;8.172;2022-07-29T06:40:53;20.60;99.90
15815;DHT22;8008;50.024;8.172;2022-07-29T06:43:29;20.70;99.90
15815;DHT22;8008;50.024;8.172;2022-07-29T06:45:59;20.80;99.90
15815;DHT22;8008;50.024;8.172;2022-07-29T06:48:29;20.80;99.90
15815;DHT22;8008;50.024;8.172;2022-07-29T06:50:58;20.90;99.90
15815;DHT22;8008;50.024;8.172;2022-07-29T06:53:26;21.10;99.90
15815;DHT22;8008;50.024;8.172;2022-07-29T06:55:55;21.10;99.90
15815;DHT22;8008;50.024;8.172;2022-07-29T06:58:25;21.20;99.90
15815;DHT22;8008;50.024;8.172;2022-07-29T07:00:56;21.30;99.90
15815;DHT22;8008;50.024;8.172;2022-07-29T07:03:24;21.30;99.90
15815;DHT22;8008;50.024;8.172;2022-07-29T07:05:54;21.50;99.90
15815;DHT22;8008;50.024;8.172;2022-07-29T07:08:24;21.60;99.90
15815;DHT22;8008;50.024;8.172;2022-07-29T07:10:52;21.70;99.90
15815;DHT22;8008;50.024;8.172;2022-07-29T07:13:21;21.80;99.90
15815;DHT22;8008;50.024;8.172;2022-07-29T07:15:49;21.90;99.90
15815;DHT22;8008;50.024;8.172;2022-07-29T07:18:18;22.20;99.90
15815;DHT22;8008;50.024;8.172;2022-07-29T07:20:46;22.10;99.90
15815;DHT22;8008;50.024;8.172;2022-07-29T07:23:16;22.20;99.90
15815;DHT22;8008;50.024;8.172;2022-07-29T07:25:44;22.30;99.90
15815;DHT22;8008;50.024;8.172;2022-07-29T07:28:12;22.30;99.90
15815;DHT22;8008;50.024;8.172;2022-07-29T07:30:40;22.40;99.90
15815;DHT22;8008;50.024;8.172;2022-07-29T07:33:08;22.50;99.90
15815;DHT22;8008;50.024;8.172;2022-07-29T07:35:36;22.60;99.90
15815;DHT22;8008;50.024;8.172;2022-07-29T07:38:03;22.60;99.90
15815;DHT22;8008;50.024;8.172;2022-07-29T07:40:34;22.70;99.90
15815;DHT22;8008;50.024;8.172;2022-07-29T07:43:02;22.80;99.90
15815;DHT22;8008;50.024;8.172;2022-07-29T07:45:30;22.80;99.90
15815;DHT22;8008;50.024;8.172;2022-07-29T07:47:59;22.80;99.90
15815;DHT22;8008;50.024;8.172;2022-07-29T07:50:27;22.90;99.90
15815;DHT22;8008;50.024;8.172;2022-07-29T07:52:55;22.90;99.90
15815;DHT22;8008;50.024;8.172;2022-07-29T07:55:25;23.10;99.90
15815;DHT22;8008;50.024;8.172;2022-07-29T07:57:54;23.30;99.90
15815;DHT22;8008;50.024;8.172;2022-07-29T08:00:22;23.30;99.90
15815;DHT22;8008;50.024;8.172;2022-07-29T08:02:50;23.40;99.90
15815;DHT22;8008;50.024;8.172;2022-07-29T08:05:19;23.60;99.90
15815;DHT22;8008;50.024;8.172;2022-07-29T08:07:47;23.70;98.50
15815;DHT22;8008;50.024;8.172;2022-07-29T08:10:16;23.80;95.00
15815;DHT22;8008;50.024;8.172;2022-07-29T08:13:08;23.80;95.60
15815;DHT22;8008;50.024;8.172;2022-07-29T08:15:39;23.90;94.80
15815;DHT22;8008;50.024;8.172;2022-07-29T08:18:07;24.00;94.40
15815;DHT22;8008;50.024;8.172;2022-07-29T08:20:35;24.00;94.30
15815;DHT22;8008;50.024;8.172;2022-07-29T08:23:06;24.10;94.40
15815;DHT22;8008;50.024;8.172;2022-07-29T08:25:35;24.10;93.90
15815;DHT22;8008;50.024;8.172;2022-07-29T08:28:07;24.10;93.00
15815;DHT22;8008;50.024;8.172;2022-07-29T08:30:35;24.10;92.90
15815;DHT22;8008;50.024;8.172;2022-07-29T08:33:03;24.10;92.40
15815;DHT22;8008;50.024;8.172;2022-07-29T08:35:31;24.10;92.40
15815;DHT22;8008;50.024;8.172;2022-07-29T08:38:02;24.10;90.20
15815;DHT22;8008;50.024;8.172;2022-07-29T08:40:31;24.10;90.00
15815;DHT22;8008;50.024;8.172;2022-07-29T08:43:03;24.10;91.10
15815;DHT22;8008;50.024;8.172;2022-07-29T08:45:41;24.20;89.80
15815;DHT22;8008;50.024;8.172;2022-07-29T08:48:14;24.30;89.80
15815;DHT22;8008;50.024;8.172;2022-07-29T08:50:43;24.30;90.40
15815;DHT22;8008;50.024;8.172;2022-07-29T08:53:13;24.40;91.30
15815;DHT22;8008;50.024;8.172;2022-07-29T08:55:42;24.50;91.50
15815;DHT22;8008;50.024;8.172;2022-07-29T08:58:11;24.50;87.70
15815;DHT22;8008;50.024;8.172;2022-07-29T09:00:44;24.50;91.30
15815;DHT22;8008;50.024;8.172;2022-07-29T09:03:16;24.60;90.90
15815;DHT22;8008;50.024;8.172;2022-07-29T09:05:46;24.70;91.50
15815;DHT22;8008;50.024;8.172;2022-07-29T09:08:14;24.70;86.60
15815;DHT22;8008;50.024;8.172;2022-07-29T09:10:43;24.80;90.20
15815;DHT22;8008;50.024;8.172;2022-07-29T09:13:11;24.80;90.10
15815;DHT22;8008;50.024;8.172;2022-07-29T09:15:39;24.80;90.00
15815;DHT22;8008;50.024;8.172;2022-07-29T09:18:08;24.80;89.90
15815;DHT22;8008;50.024;8.172;2022-07-29T09:20:56;24.80;88.80
15815;DHT22;8008;50.024;8.172;2022-07-29T09:23:59;24.90;90.10
15815;DHT22;8008;50.024;8.172;2022-07-29T09:26:28;25.00;88.20
15815;DHT22;8008;50.024;8.172;2022-07-29T09:28:57;24.90;86.40
15815;DHT22;8008;50.024;8.172;2022-07-29T09:31:33;25.00;88.00
15815;DHT22;8008;50.024;8.172;2022-07-29T09:34:04;25.10;86.80
15815;DHT22;8008;50.024;8.172;2022-07-29T09:36:38;25.30;87.50
15815;DHT22;8008;50.024;8.172;2022-07-29T09:39:07;25.30;87.60
15815;DHT22;8008;50.024;8.172;2022-07-29T09:41:45;25.40;86.80
15815;DHT22;8008;50.024;8.172;2022-07-29T09:44:13;25.50;89.60
15815;DHT22;8008;50.024;8.172;2022-07-29T09:46:56;25.60;89.50
15815;DHT22;8008;50.024;8.172;2022-07-29T09:49:26;25.60;87.40
15815;DHT22;8008;50.024;8.172;2022-07-29T09:52:04;25.60;90.80
15815;DHT22;8008;50.024;8.172;2022-07-29T09:54:33;25.60;84.00
15815;DHT22;8008;50.024;8.172;2022-07-29T09:57:05;25.60;85.90
15815;DHT22;8008;50.024;8.172;2022-07-29T09:59:33;25.70;90.20
15815;DHT22;8008;50.024;8.172;2022-07-29T10:02:01;25.80;86.20
15815;DHT22;8008;50.024;8.172;2022-07-29T10:04:41;25.80;88.70
15815;DHT22;8008;50.024;8.172;2022-07-29T10:07:09;26.00;85.10
15815;DHT22;8008;50.024;8.172;2022-07-29T10:09:37;26.00;85.40
15815;DHT22;8008;50.024;8.172;2022-07-29T10:12:07;26.10;86.40
15815;DHT22;8008;50.024;8.172;2022-07-29T10:14:36;26.30;86.90
15815;DHT22;8008;50.024;8.172;2022-07-29T10:17:06;26.50;84.90
15815;DHT22;8008;50.024;8.172;2022-07-29T10:19:35;26.70;84.60
15815;DHT22;8008;50.024;8.172;2022-07-29T10:22:06;26.80;86.90
15815;DHT22;8008;50.024;8.172;2022-07-29T10:24:35;27.00;84.90
15815;DHT22;8008;50.024;8.172;2022-07-29T10:27:07;27.00;83.70
15815;DHT22;8008;50.024;8.172;2022-07-29T10:29:35;27.00;86.10
15815;DHT22;8008;50.024;8.172;2022-07-29T10:32:16;27.30;87.80
15815;DHT22;8008;50.024;8.172;2022-07-29T10:35:01;27.50;82.80
15815;DHT22;8008;50.024;8.172;2022-07-29T10:37:46;27.70;80.40
15815;DHT22;8008;50.024;8.172;2022-07-29T10:40:28;28.00;83.50
15815;DHT22;8008;50.024;8.172;2022-07-29T10:43:19;28.20;84.40
15815;DHT22;8008;50.024;8.172;2022-07-29T10:45:56;28.30;84.70
15815;DHT22;8008;50.024;8.172;2022-07-29T10:48:25;28.50;80.40
15815;DHT22;8008;50.024;8.172;2022-07-29T10:50:55;28.70;79.60
15815;DHT22;8008;50.024;8.172;2022-07-29T10:53:45;28.70;82.30
15815;DHT22;8008;50.024;8.172;2022-07-29T10:56:26;28.40;80.10
15815;DHT22;8008;50.024;8.172;2022-07-29T10:59:25;28.10;80.20
15815;DHT22;8008;50.024;8.172;2022-07-29T11:02:02;28.00;81.30
15815;DHT22;8008;50.024;8.172;2022-07-29T11:05:10;28.30;81.80
15815;DHT22;8008;50.024;8.172;2022-07-29T11:07:40;28.50;81.40
15815;DHT22;8008;50.024;8.172;2022-07-29T11:10:29;28.80;80.40
15815;DHT22;8008;50.024;8.172;2022-07-29T11:12:57;29.20;80.70
15815;DHT22;8008;50.024;8.172;2022-07-29T11:15:25;29.50;80.70
15815;DHT22;8008;50.024;8.172;2022-07-29T11:18:04;29.70;76.50
15815;DHT22;8008;50.024;8.172;2022-07-29T11:20:41;29.80;75.50
15815;DHT22;8008;50.024;8.172;2022-07-29T11:23:22;29.90;73.00
15815;DHT22;8008;50.024;8.172;2022-07-29T11:26:18;30.00;75.00
15815;DHT22;8008;50.024;8.172;2022-07-29T11:28:54;30.40;76.20
15815;DHT22;8008;50.024;8.172;2022-07-29T11:31:34;30.60;75.20
15815;DHT22;8008;50.024;8.172;2022-07-29T11:34:23;30.70;74.40
15815;DHT22;8008;50.024;8.172;2022-07-29T11:37:15;30.50;73.50
15815;DHT22;8008;50.024;8.172;2022-07-29T11:39:44;30.70;74.20
15815;DHT22;8008;50.024;8.172;2022-07-29T11:42:40;30.90;72.70
15815;DHT22;8008;50.024;8.172;2022-07-29T11:45:11;31.00;72.90
15815;DHT22;8008;50.024;8.172;2022-07-29T11:48:00;31.10;72.00
15815;DHT22;8008;50.024;8.172;2022-07-29T11:50:49;31.10;72.30
15815;DHT22;8008;50.024;8.172;2022-07-29T11:53:17;31.30;71.70
15815;DHT22;8008;50.024;8.172;2022-07-29T11:55:47;31.50;70.70
15815;DHT22;8008;50.024;8.172;2022-07-29T11:58:25;31.70;70.80
15815;DHT22;8008;50.024;8.172;2022-07-29T12:00:54;31.80;68.40
15815;DHT22;8008;50.024;8.172;2022-07-29T12:03:27;32.00;70.40
15815;DHT22;8008;50.024;8.172;2022-07-29T12:06:15;32.20;70.00
15815;DHT22;8008;50.024;8.172;2022-07-29T12:08:44;32.30;69.40
15815;DHT22;8008;50.024;8.172;2022-07-29T12:11:17;32.40;68.10
15815;DHT22;8008;50.024;8.172;2022-07-29T12:13:49;32.50;64.80
15815;DHT22;8008;50.024;8.172;2022-07-29T12:16:18;32.70;65.40
15815;DHT22;8008;50.024;8.172;2022-07-29T12:18:56;32.80;67.90
15815;DHT22;8008;50.024;8.172;2022-07-29T12:21:25;32.60;66.30
15815;DHT22;8008;50.024;8.172;2022-07-29T12:23:56;32.10;63.80
15815;DHT22;8008;50.024;8.172;2022-07-29T12:26:35;32.30;66.50
15815;DHT22;8008;50.024;8.172;2022-07-29T12:29:04;32.60;64.40
15815;DHT22;8008;50.024;8.172;2022-07-29T12:31:38;32.80;64.90
15815;DHT22;8008;50.024;8.172;2022-07-29T12:34:11;32.80;63.20
15815;DHT22;8008;50.024;8.172;2022-07-29T12:36:39;33.20;64.50
15815;DHT22;8008;50.024;8.172;2022-07-29T12:39:08;33.60;65.40
15815;DHT22;8008;50.024;8.172;2022-07-29T12:41:37;33.30;66.00
15815;DHT22;8008;50.024;8.172;2022-07-29T12:44:06;32.80;64.10
15815;DHT22;8008;50.024;8.172;2022-07-29T12:46:34;32.30;63.30
15815;DHT22;8008;50.024;8.172;2022-07-29T12:49:03;31.50;64.10
15815;DHT22;8008;50.024;8.172;2022-07-29T12:51:32;30.90;66.20
15815;DHT22;8008;50.024;8.172;2022-07-29T12:54:06;30.60;63.90
15815;DHT22;8008;50.024;8.172;2022-07-29T12:56:34;30.50;66.80
15815;DHT22;8008;50.024;8.172;2022-07-29T12:59:14;30.10;65.80
15815;DHT22;8008;50.024;8.172;2022-07-29T13:01:43;30.20;66.90
15815;DHT22;8008;50.024;8.172;2022-07-29T13:04:24;30.30;65.70
15815;DHT22;8008;50.024;8.172;2022-07-29T13:06:59;30.20;68.10
15815;DHT22;8008;50.024;8.172;2022-07-29T13:09:40;30.10;67.60
15815;DHT22;8008;50.024;8.172;2022-07-29T13:12:10;30.00;66.50
15815;DHT22;8008;50.024;8.172;2022-07-29T13:14:42;29.90;69.40
15815;DHT22;8008;50.024;8.172;2022-07-29T13:17:12;29.70;71.30
15815;DHT22;8008;50.024;8.172;2022-07-29T13:19:41;30.00;71.40
15815;DHT22;8008;50.024;8.172;2022-07-29T13:22:11;30.00;70.70
15815;DHT22;8008;50.024;8.172;2022-07-29T13:24:46;30.00;71.30
15815;DHT22;8008;50.024;8.172;2022-07-29T13:27:15;30.50;70.60
15815;DHT22;8008;50.024;8.172;2022-07-29T13:29:45;31.10;69.40
15815;DHT22;8008;50.024;8.172;2022-07-29T13:32:13;31.90;69.00
15815;DHT22;8008;50.024;8.172;2022-07-29T13:34:42;32.10;68.40
15815;DHT22;8008;50.024;8.172;2022-07-29T13:37:09;32.30;67.80
15815;DHT22;8008;50.024;8.172;2022-07-29T13:39:37;32.30;66.30
15815;DHT22;8008;50.024;8.172;2022-07-29T13:42:06;32.00;65.90
15815;DHT22;8008;50.024;8.172;2022-07-29T13:44:36;31.70;67.00
15815;DHT22;8008;50.024;8.172;2022-07-29T13:47:06;31.50;65.50
15815;DHT22;8008;50.024;8.172;2022-07-29T13:49:35;31.40;66.30
15815;DHT22;8008;50.024;8.172;2022-07-29T13:52:03;31.00;68.10
15815;DHT22;8008;50.024;8.172;2022-07-29T13:54:34;30.70;68.40
15815;DHT22;8008;50.024;8.172;2022-07-29T13:57:08;30.20;69.30
15815;DHT22;8008;50.024;8.172;2022-07-29T13:59:37;29.70;70.30
15815;DHT22;8008;50.024;8.172;2022-07-29T14:02:07;29.50;71.00
15815;DHT22;8008;50.024;8.172;2022-07-29T14:04:35;29.50;71.30
15815;DHT22;8008;50.024;8.172;2022-07-29T14:07:05;29.50;71.60
15815;DHT22;8008;50.024;8.172;2022-07-29T14:09:34;29.50;71.10
15815;DHT22;8008;50.024;8.172;2022-07-29T14:12:07;30.10;71.60
15815;DHT22;8008;50.024;8.172;2022-07-29T14:14:35;30.70;71.00
15815;DHT22;8008;50.024;8.172;2022-07-29T14:17:04;30.80;70.30
15815;DHT22;8008;50.024;8.172;2022-07-29T14:19:35;30.70;70.50
15815;DHT22;8008;50.024;8.172;2022-07-29T14:22:05;30.40;70.80
15815;DHT22;8008;50.024;8.172;2022-07-29T14:24:34;30.20;71.30
15815;DHT22;8008;50.024;8.172;2022-07-29T14:27:04;30.00;71.10
15815;DHT22;8008;50.024;8.172;2022-07-29T14:29:32;29.70;71.30
15815;DHT22;8008;50.024;8.172;2022-07-29T14:32:04;29.50;71.30
15815;DHT22;8008;50.024;8.172;2022-07-29T14:34:32;29.40;71.70
15815;DHT22;8008;50.024;8.172;2022-07-29T14:37:02;29.30;71.10
15815;DHT22;8008;50.024;8.172;2022-07-29T14:39:32;29.20;71.70
15815;DHT22;8008;50.024;8.172;2022-07-29T14:42:05;29.00;72.10
15815;DHT22;8008;50.024;8.172;2022-07-29T14:44:34;29.00;71.40
15815;DHT22;8008;50.024;8.172;2022-07-29T14:47:02;28.90;72.40
15815;DHT22;8008;50.024;8.172;2022-07-29T14:49:33;28.80;72.30
15815;DHT22;8008;50.024;8.172;2022-07-29T14:52:03;28.70;73.00
15815;DHT22;8008;50.024;8.172;2022-07-29T14:54:31;28.70;72.40
15815;DHT22;8008;50.024;8.172;2022-07-29T14:56:59;28.60;73.00
15815;DHT22;8008;50.024;8.172;2022-07-29T14:59:27;28.60;75.50
15815;DHT22;8008;50.024;8.172;2022-07-29T15:01:55;28.40;99.90
15815;DHT22;8008;50.024;8.172;2022-07-29T15:04:23;24.60;99.90
15815;DHT22;8008;50.024;8.172;2022-07-29T15:06:51;23.20;99.90
15815;DHT22;8008;50.024;8.172;2022-07-29T15:09:21;22.60;99.90
15815;DHT22;8008;50.024;8.172;2022-07-29T15:11:49;21.50;99.90
15815;DHT22;8008;50.024;8.172;2022-07-29T15:14:17;20.40;99.90
15815;DHT22;8008;50.024;8.172;2022-07-29T15:16:44;20.40;99.90
15815;DHT22;8008;50.024;8.172;2022-07-29T15:19:13;20.60;99.90
15815;DHT22;8008;50.024;8.172;2022-07-29T15:21:41;20.90;99.90
15815;DHT22;8008;50.024;8.172;2022-07-29T15:24:14;21.00;99.90
15815;DHT22;8008;50.024;8.172;2022-07-29T15:26:44;20.80;99.90
15815;DHT22;8008;50.024;8.172;2022-07-29T15:29:13;20.70;99.90
15815;DHT22;8008;50.024;8.172;2022-07-29T15:31:41;20.90;99.90
15815;DHT22;8008;50.024;8.172;2022-07-29T15:34:09;20.80;99.90
15815;DHT22;8008;50.024;8.172;2022-07-29T15:36:37;21.00;99.90
15815;DHT22;8008;50.024;8.172;2022-07-29T15:39:19;21.20;99.90
15815;DHT22;8008;50.024;8.172;2022-07-29T15:41:49;22.30;99.90
15815;DHT22;8008;50.024;8.172;2022-07-29T15:44:17;23.20;99.90
15815;DHT22;8008;50.024;8.172;2022-07-29T15:46:46;24.00;99.90
15815;DHT22;8008;50.024;8.172;2022-07-29T15:49:34;24.60;99.90
15815;DHT22;8008;50.024;8.172;2022-07-29T15:52:15;24.80;99.90
15815;DHT22;8008;50.024;8.172;2022-07-29T15:54:43;24.70;99.90
15815;DHT22;8008;50.024;8.172;2022-07-29T15:57:13;24.00;99.90
15815;DHT22;8008;50.024;8.172;2022-07-29T15:59:41;23.40;99.90
15815;DHT22;8008;50.024;8.172;2022-07-29T16:02:09;23.50;99.90
15815;DHT22;8008;50.024;8.172;2022-07-29T16:04:37;23.60;99.90
15815;DHT22;8008;50.024;8.172;2022-07-29T16:07:05;23.60;99.90
15815;DHT22;8008;50.024;8.172;2022-07-29T16:09:33;23.20;99.90
15815;DHT22;8008;50.024;8.172;2022-07-29T16:12:01;23.20;99.90
15815;DHT22;8008;50.024;8.172;2022-07-29T16:14:42;23.50;99.90
15815;DHT22;8008;50.024;8.172;2022-07-29T16:17:10;23.50;99.90
15815;DHT22;8008;50.024;8.172;2022-07-29T16:19:41;23.30;99.90
15815;DHT22;8008;50.024;8.172;2022-07-29T16:22:09;23.20;99.90
15815;DHT22;8008;50.024;8.172;2022-07-29T16:24:37;23.20;99.90
15815;DHT22;8008;50.024;8.172;2022-07-29T16:27:05;23.10;99.90
15815;DHT22;8008;50.024;8.172;2022-07-29T16:29:33;23.10;99.90
15815;DHT22;8008;50.024;8.172;2022-07-29T16:32:04;23.00;99.90
15815;DHT22;8008;50.024;8.172;2022-07-29T16:34:33;23.00;99.90
15815;DHT22;8008;50.024;8.172;2022-07-29T16:37:01;23.10;99.90
15815;DHT22;8008;50.024;8.172;2022-07-29T16:39:29;23.00;99.90
15815;DHT22;8008;50.024;8.172;2022-07-29T16:41:57;23.00;99.90
15815;DHT22;8008;50.024;8.172;2022-07-29T16:44:28;22.90;99.90
15815;DHT22;8008;50.024;8.172;2022-07-29T16:46:57;22.70;99.90
15815;DHT22;8008;50.024;8.172;2022-07-29T16:49:27;22.40;99.90
15815;DHT22;8008;50.024;8.172;2022-07-29T16:51:55;22.00;99.90
15815;DHT22;8008;50.024;8.172;2022-07-29T16:54:24;21.90;99.90
15815;DHT22;8008;50.024;8.172;2022-07-29T16:56:53;21.60;99.90
15815;DHT22;8008;50.024;8.172;2022-07-29T16:59:21;21.30;99.90
15815;DHT22;8008;50.024;8.172;2022-07-29T17:01:49;20.70;99.90
15815;DHT22;8008;50.024;8.172;2022-07-29T17:04:17;20.50;99.90
15815;DHT22;8008;50.024;8.172;2022-07-29T17:06:49;20.40;99.90
15815;DHT22;8008;50.024;8.172;2022-07-29T17:09:18;20.80;99.90
15815;DHT22;8008;50.024;8.172;2022-07-29T17:11:46;21.10;99.90
15815;DHT22;8008;50.024;8.172;2022-07-29T17:14:21;21.40;99.90
15815;DHT22;8008;50.024;8.172;2022-07-29T17:16:52;21.20;99.90
15815;DHT22;8008;50.024;8.172;2022-07-29T17:19:28;21.00;99.90
15815;DHT22;8008;50.024;8.172;2022-07-29T17:21:58;20.90;99.90
15815;DHT22;8008;50.024;8.172;2022-07-29T17:24:37;20.50;99.90
15815;DHT22;8008;50.024;8.172;2022-07-29T17:27:07;20.80;99.90
15815;DHT22;8008;50.024;8.172;2022-07-29T17:29:34;21.20;99.90
15815;DHT22;8008;50.024;8.172;2022-07-29T17:32:03;21.40;99.90
15815;DHT22;8008;50.024;8.172;2022-07-29T17:34:34;21.10;99.90
15815;DHT22;8008;50.024;8.172;2022-07-29T17:37:04;21.20;99.90
15815;DHT22;8008;50.024;8.172;2022-07-29T17:39:33;21.40;99.90
15815;DHT22;8008;50.024;8.172;2022-07-29T17:42:01;21.60;99.90
15815;DHT22;8008;50.024;8.172;2022-07-29T17:44:29;21.90;99.90
15815;DHT22;8008;50.024;8.172;2022-07-29T17:47:02;21.90;99.90
15815;DHT22;8008;50.024;8.172;2022-07-29T17:49:30;21.70;99.90
15815;DHT22;8008;50.024;8.172;2022-07-29T17:52:03;21.70;99.90
15815;DHT22;8008;50.024;8.172;2022-07-29T17:54:31;21.90;99.90
15815;DHT22;8008;50.024;8.172;2022-07-29T17:56:59;22.00;99.90
15815;DHT22;8008;50.024;8.172;2022-07-29T17:59:27;22.00;99.90
15815;DHT22;8008;50.024;8.172;2022-07-29T18:01:55;22.00;99.90
15815;DHT22;8008;50.024;8.172;2022-07-29T18:04:23;22.00;99.90
15815;DHT22;8008;50.024;8.172;2022-07-29T18:06:51;22.10;99.90
15815;DHT22;8008;50.024;8.172;2022-07-29T18:09:21;22.00;99.90
15815;DHT22;8008;50.024;8.172;2022-07-29T18:11:50;22.10;99.90
15815;DHT22;8008;50.024;8.172;2022-07-29T18:14:18;22.20;99.90
15815;DHT22;8008;50.024;8.172;2022-07-29T18:16:46;22.20;99.90
15815;DHT22;8008;50.024;8.172;2022-07-29T18:19:14;22.20;99.90
15815;DHT22;8008;50.024;8.172;2022-07-29T18:21:42;22.10;99.90
15815;DHT22;8008;50.024;8.172;2022-07-29T18:24:23;22.10;99.90
15815;DHT22;8008;50.024;8.172;2022-07-29T18:26:53;22.00;99.90
15815;DHT22;8008;50.024;8.172;2022-07-29T18:29:22;22.10;99.90
15815;DHT22;8008;50.024;8.172;2022-07-29T18:31:50;22.10;99.90
15815;DHT22;8008;50.024;8.172;2022-07-29T18:34:18;21.90;99.90
15815;DHT22;8008;50.024;8.172;2022-07-29T18:36:46;22.10;99.90
15815;DHT22;8008;50.024;8.172;2022-07-29T18:39:14;22.10;99.90
15815;DHT22;8008;50.024;8.172;2022-07-29T18:41:48;22.10;99.90
15815;DHT22;8008;50.024;8.172;2022-07-29T18:44:17;21.90;99.90
15815;DHT22;8008;50.024;8.172;2022-07-29T18:46:49;21.80;99.90
15815;DHT22;8008;50.024;8.172;2022-07-29T18:49:17;21.80;99.90
15815;DHT22;8008;50.024;8.172;2022-07-29T18:51:46;21.70;99.90
15815;DHT22;8008;50.024;8.172;2022-07-29T18:54:14;21.80;99.90
15815;DHT22;8008;50.024;8.172;2022-07-29T18:56:43;21.80;99.90
15815;DHT22;8008;50.024;8.172;2022-07-29T18:59:13;21.70;99.90
15815;DHT22;8008;50.024;8.172;2022-07-29T19:01:42;21.90;99.90
15815;DHT22;8008;50.024;8.172;2022-07-29T19:04:11;21.90;99.90
15815;DHT22;8008;50.024;8.172;2022-07-29T19:06:38;21.90;99.90
15815;DHT22;8008;50.024;8.172;2022-07-29T19:09:07;21.90;99.90
15815;DHT22;8008;50.024;8.172;2022-07-29T19:11:35;21.60;99.90